sensor_id;sensor_type;location;lat;lon;timestamp;temperature;humidity
13606;DHT22;6874;52.084;5.090;2023-07-02T00:01:09;18.40;91.60
13606;DHT22;6874;52.084;5.090;2023-07-02T00:03:34;18.40;91.70
13606;DHT22;6874;52.084;5.090;2023-07-02T00:06:00;18.50;91.60
13606;DHT22;6874;52.084;5.090;2023-07-02T00:08:26;18.40;91.60
13606;DHT22;6874;52.084;5.090;2023-07-02T00:10:51;18.30;91.70
13606;DHT22;6874;52.084;5.090;2023-07-02T00:13:17;18.30;91.60
13606;DHT22;6874;52.084;5.090;2023-07-02T00:15:42;18.30;91.70
13606;DHT22;6874;52.084;5.090;2023-07-02T00:18:08;18.20;91.90
13606;DHT22;6874;52.084;5.090;2023-07-02T00:20:34;18.20;91.70
13606;DHT22;6874;52.084;5.090;2023-07-02T00:23:06;18.20;92.00
13606;DHT22;6874;52.084;5.090;2023-07-02T00:25:34;18.10;91.70
13606;DHT22;6874;52.084;5.090;2023-07-02T00:28:00;18.10;91.70
13606;DHT22;6874;52.084;5.090;2023-07-02T00:30:25;18.10;91.70
13606;DHT22;6874;52.084;5.090;2023-07-02T00:32:51;18.10;91.80
13606;DHT22;6874;52.084;5.090;2023-07-02T00:35:16;18.00;91.60
13606;DHT22;6874;52.084;5.090;2023-07-02T00:37:42;18.00;91.70
13606;DHT22;6874;52.084;5.090;2023-07-02T00:40:08;18.00;91.60
13606;DHT22;6874;52.084;5.090;2023-07-02T00:42:34;18.00;91.60
13606;DHT22;6874;52.084;5.090;2023-07-02T00:44:59;17.90;91.50
13606;DHT22;6874;52.084;5.090;2023-07-02T00:47:28;17.90;91.60
13606;DHT22;6874;52.084;5.090;2023-07-02T00:49:54;17.90;91.60
13606;DHT22;6874;52.084;5.090;2023-07-02T00:52:20;17.90;91.60
13606;DHT22;6874;52.084;5.090;2023-07-02T00:54:46;17.80;91.60
13606;DHT22;6874;52.084;5.090;2023-07-02T00:57:12;17.80;91.60
13606;DHT22;6874;52.084;5.090;2023-07-02T00:59:38;17.70;91.60
13606;DHT22;6874;52.084;5.090;2023-07-02T01:02:06;17.80;91.60
13606;DHT22;6874;52.084;5.090;2023-07-02T01:04:32;17.80;91.50
13606;DHT22;6874;52.084;5.090;2023-07-02T01:06:57;17.60;91.60
13606;DHT22;6874;52.084;5.090;2023-07-02T01:09:24;17.60;91.50
13606;DHT22;6874;52.084;5.090;2023-07-02T01:12:05;17.60;91.60
13606;DHT22;6874;52.084;5.090;2023-07-02T01:14:38;17.60;91.70
13606;DHT22;6874;52.084;5.090;2023-07-02T01:17:06;17.60;91.70
13606;DHT22;6874;52.084;5.090;2023-07-02T01:19:51;17.50;91.60
13606;DHT22;6874;52.084;5.090;2023-07-02T01:22:19;17.50;91.60
13606;DHT22;6874;52.084;5.090;2023-07-02T01:24:45;17.40;91.60
13606;DHT22;6874;52.084;5.090;2023-07-02T01:27:12;17.40;91.40
13606;DHT22;6874;52.084;5.090;2023-07-02T01:29:38;17.40;91.60
13606;DHT22;6874;52.084;5.090;2023-07-02T01:32:04;17.40;91.80
13606;DHT22;6874;52.084;5.090;2023-07-02T01:34:30;17.30;91.40
13606;DHT22;6874;52.084;5.090;2023-07-02T01:36:56;17.30;91.50
13606;DHT22;6874;52.084;5.090;2023-07-02T01:39:22;17.20;91.50
13606;DHT22;6874;52.084;5.090;2023-07-02T01:41:52;17.20;91.40
13606;DHT22;6874;52.084;5.090;2023-07-02T01:44:18;17.20;91.50
13606;DHT22;6874;52.084;5.090;2023-07-02T01:46:45;17.10;91.40
13606;DHT22;6874;52.084;5.090;2023-07-02T01:49:14;17.20;91.50
13606;DHT22;6874;52.084;5.090;2023-07-02T01:51:40;17.10;91.50
13606;DHT22;6874;52.084;5.090;2023-07-02T01:54:05;17.10;91.40
13606;DHT22;6874;52.084;5.090;2023-07-02T01:56:31;17.00;91.40
13606;DHT22;6874;52.084;5.090;2023-07-02T01:58:57;16.90;91.40
13606;DHT22;6874;52.084;5.090;2023-07-02T02:01:23;17.00;91.40
13606;DHT22;6874;52.084;5.090;2023-07-02T02:03:48;16.90;91.40
13606;DHT22;6874;52.084;5.090;2023-07-02T02:06:14;16.90;91.40
13606;DHT22;6874;52.084;5.090;2023-07-02T02:08:39;16.80;91.70
13606;DHT22;6874;52.084;5.090;2023-07-02T02:11:05;16.90;91.40
13606;DHT22;6874;52.084;5.090;2023-07-02T02:13:31;16.80;91.70
13606;DHT22;6874;52.084;5.090;2023-07-02T02:15:57;16.80;91.40
13606;DHT22;6874;52.084;5.090;2023-07-02T02:18:22;16.80;91.40
13606;DHT22;6874;52.084;5.090;2023-07-02T02:20:48;16.70;91.40
13606;DHT22;6874;52.084;5.090;2023-07-02T02:23:13;16.70;91.40
13606;DHT22;6874;52.084;5.090;2023-07-02T02:25:39;16.60;91.40
13606;DHT22;6874;52.084;5.090;2023-07-02T02:28:04;16.60;91.30
13606;DHT22;6874;52.084;5.090;2023-07-02T02:30:30;16.60;91.30
13606;DHT22;6874;52.084;5.090;2023-07-02T02:32:55;16.60;91.10
13606;DHT22;6874;52.084;5.090;2023-07-02T02:35:21;16.60;91.60
13606;DHT22;6874;52.084;5.090;2023-07-02T02:37:48;16.50;91.30
13606;DHT22;6874;52.084;5.090;2023-07-02T02:40:13;16.50;91.40
13606;DHT22;6874;52.084;5.090;2023-07-02T02:42:39;16.40;91.30
13606;DHT22;6874;52.084;5.090;2023-07-02T02:45:05;16.40;91.10
13606;DHT22;6874;52.084;5.090;2023-07-02T02:47:31;16.40;91.40
13606;DHT22;6874;52.084;5.090;2023-07-02T02:49:56;16.30;91.30
13606;DHT22;6874;52.084;5.090;2023-07-02T02:52:22;16.30;91.40
13606;DHT22;6874;52.084;5.090;2023-07-02T02:54:49;16.30;91.20
13606;DHT22;6874;52.084;5.090;2023-07-02T02:57:14;16.20;91.20
13606;DHT22;6874;52.084;5.090;2023-07-02T02:59:40;16.20;91.10
13606;DHT22;6874;52.084;5.090;2023-07-02T03:02:06;16.20;91.20
13606;DHT22;6874;52.084;5.090;2023-07-02T03:04:31;16.20;91.10
13606;DHT22;6874;52.084;5.090;2023-07-02T03:06:57;16.10;91.00
13606;DHT22;6874;52.084;5.090;2023-07-02T03:09:22;16.10;91.20
13606;DHT22;6874;52.084;5.090;2023-07-02T03:11:48;16.10;91.30
13606;DHT22;6874;52.084;5.090;2023-07-02T03:14:14;16.00;91.20
13606;DHT22;6874;52.084;5.090;2023-07-02T03:16:41;16.00;91.10
13606;DHT22;6874;52.084;5.090;2023-07-02T03:19:07;16.00;91.30
13606;DHT22;6874;52.084;5.090;2023-07-02T03:21:33;15.90;91.00
13606;DHT22;6874;52.084;5.090;2023-07-02T03:23:58;15.90;91.10
13606;DHT22;6874;52.084;5.090;2023-07-02T03:26:24;15.90;91.20
13606;DHT22;6874;52.084;5.090;2023-07-02T03:28:50;15.90;91.20
13606;DHT22;6874;52.084;5.090;2023-07-02T03:31:15;15.90;91.20
13606;DHT22;6874;52.084;5.090;2023-07-02T03:33:41;15.80;91.20
13606;DHT22;6874;52.084;5.090;2023-07-02T03:36:07;15.80;91.10
13606;DHT22;6874;52.084;5.090;2023-07-02T03:38:32;15.80;91.10
13606;DHT22;6874;52.084;5.090;2023-07-02T03:40:58;15.70;91.10
13606;DHT22;6874;52.084;5.090;2023-07-02T03:43:23;15.70;91.00
13606;DHT22;6874;52.084;5.090;2023-07-02T03:45:52;15.70;91.00
13606;DHT22;6874;52.084;5.090;2023-07-02T03:48:18;15.70;91.00
13606;DHT22;6874;52.084;5.090;2023-07-02T03:50:43;15.70;91.00
13606;DHT22;6874;52.084;5.090;2023-07-02T03:53:09;15.60;91.00
13606;DHT22;6874;52.084;5.090;2023-07-02T03:55:35;15.60;90.90
13606;DHT22;6874;52.084;5.090;2023-07-02T03:58:00;15.60;90.90
13606;DHT22;6874;52.084;5.090;2023-07-02T04:00:26;15.60;91.00
13606;DHT22;6874;52.084;5.090;2023-07-02T04:02:52;15.60;91.30
13606;DHT22;6874;52.084;5.090;2023-07-02T04:05:17;15.50;90.90
13606;DHT22;6874;52.084;5.090;2023-07-02T04:07:43;15.50;90.80
13606;DHT22;6874;52.084;5.090;2023-07-02T04:10:08;15.50;90.90
13606;DHT22;6874;52.084;5.090;2023-07-02T04:12:34;15.50;90.90
13606;DHT22;6874;52.084;5.090;2023-07-02T04:14:59;15.50;91.30
13606;DHT22;6874;52.084;5.090;2023-07-02T04:17:25;15.40;90.90
13606;DHT22;6874;52.084;5.090;2023-07-02T04:19:54;15.40;91.00
13606;DHT22;6874;52.084;5.090;2023-07-02T04:22:20;15.40;91.00
13606;DHT22;6874;52.084;5.090;2023-07-02T04:24:46;15.40;91.00
13606;DHT22;6874;52.084;5.090;2023-07-02T04:27:14;15.40;91.00
13606;DHT22;6874;52.084;5.090;2023-07-02T04:29:45;15.30;91.00
13606;DHT22;6874;52.084;5.090;2023-07-02T04:32:11;15.40;91.00
13606;DHT22;6874;52.084;5.090;2023-07-02T04:34:37;15.30;91.00
13606;DHT22;6874;52.084;5.090;2023-07-02T04:37:04;15.30;91.00
13606;DHT22;6874;52.084;5.090;2023-07-02T04:39:29;15.30;91.00
13606;DHT22;6874;52.084;5.090;2023-07-02T04:41:55;15.30;91.10
13606;DHT22;6874;52.084;5.090;2023-07-02T04:44:21;15.30;91.00
13606;DHT22;6874;52.084;5.090;2023-07-02T04:46:58;15.30;91.00
13606;DHT22;6874;52.084;5.090;2023-07-02T04:49:24;15.30;91.10
13606;DHT22;6874;52.084;5.090;2023-07-02T04:51:50;15.20;91.10
13606;DHT22;6874;52.084;5.090;2023-07-02T04:54:16;15.30;91.10
13606;DHT22;6874;52.084;5.090;2023-07-02T04:56:41;15.20;91.00
13606;DHT22;6874;52.084;5.090;2023-07-02T04:59:07;15.20;91.10
13606;DHT22;6874;52.084;5.090;2023-07-02T05:01:33;15.20;91.10
13606;DHT22;6874;52.084;5.090;2023-07-02T05:03:58;15.20;91.10
13606;DHT22;6874;52.084;5.090;2023-07-02T05:06:24;15.20;91.10
13606;DHT22;6874;52.084;5.090;2023-07-02T05:08:49;15.20;91.10
13606;DHT22;6874;52.084;5.090;2023-07-02T05:11:15;15.20;91.10
13606;DHT22;6874;52.084;5.090;2023-07-02T05:13:40;15.20;91.10
13606;DHT22;6874;52.084;5.090;2023-07-02T05:16:06;15.20;91.20
13606;DHT22;6874;52.084;5.090;2023-07-02T05:18:32;15.20;91.10
13606;DHT22;6874;52.084;5.090;2023-07-02T05:20:57;15.20;91.10
13606;DHT22;6874;52.084;5.090;2023-07-02T05:23:23;15.20;91.20
13606;DHT22;6874;52.084;5.090;2023-07-02T05:25:48;15.10;91.20
13606;DHT22;6874;52.084;5.090;2023-07-02T05:28:14;15.20;91.30
13606;DHT22;6874;52.084;5.090;2023-07-02T05:30:39;15.20;91.40
13606;DHT22;6874;52.084;5.090;2023-07-02T05:33:05;15.20;91.30
13606;DHT22;6874;52.084;5.090;2023-07-02T05:35:31;15.20;91.40
13606;DHT22;6874;52.084;5.090;2023-07-02T05:37:56;15.20;91.30
13606;DHT22;6874;52.084;5.090;2023-07-02T05:40:22;15.30;91.70
13606;DHT22;6874;52.084;5.090;2023-07-02T05:42:47;15.20;91.40
13606;DHT22;6874;52.084;5.090;2023-07-02T05:45:13;15.20;91.50
13606;DHT22;6874;52.084;5.090;2023-07-02T05:47:38;15.20;91.50
13606;DHT22;6874;52.084;5.090;2023-07-02T05:50:05;15.20;91.90
13606;DHT22;6874;52.084;5.090;2023-07-02T05:52:31;15.20;91.60
13606;DHT22;6874;52.084;5.090;2023-07-02T05:54:56;15.20;91.50
13606;DHT22;6874;52.084;5.090;2023-07-02T05:57:22;15.20;91.60
13606;DHT22;6874;52.084;5.090;2023-07-02T05:59:48;15.20;91.50
13606;DHT22;6874;52.084;5.090;2023-07-02T06:02:13;15.40;91.80
13606;DHT22;6874;52.084;5.090;2023-07-02T06:04:39;15.20;91.80
13606;DHT22;6874;52.084;5.090;2023-07-02T06:07:04;15.30;91.90
13606;DHT22;6874;52.084;5.090;2023-07-02T06:09:30;15.30;92.00
13606;DHT22;6874;52.084;5.090;2023-07-02T06:11:56;15.30;92.00
13606;DHT22;6874;52.084;5.090;2023-07-02T06:14:22;15.30;91.90
13606;DHT22;6874;52.084;5.090;2023-07-02T06:16:51;15.40;92.30
13606;DHT22;6874;52.084;5.090;2023-07-02T06:19:17;15.40;92.40
13606;DHT22;6874;52.084;5.090;2023-07-02T06:21:43;15.40;92.40
13606;DHT22;6874;52.084;5.090;2023-07-02T06:24:08;15.50;92.50
13606;DHT22;6874;52.084;5.090;2023-07-02T06:26:34;15.50;92.50
13606;DHT22;6874;52.084;5.090;2023-07-02T06:28:59;15.50;92.70
13606;DHT22;6874;52.084;5.090;2023-07-02T06:31:25;15.60;92.50
13606;DHT22;6874;52.084;5.090;2023-07-02T06:33:51;15.70;92.50
13606;DHT22;6874;52.084;5.090;2023-07-02T06:36:16;15.70;92.40
13606;DHT22;6874;52.084;5.090;2023-07-02T06:38:43;15.70;92.30
13606;DHT22;6874;52.084;5.090;2023-07-02T06:41:08;15.70;92.30
13606;DHT22;6874;52.084;5.090;2023-07-02T06:43:34;15.70;92.40
13606;DHT22;6874;52.084;5.090;2023-07-02T06:46:00;15.80;92.50
13606;DHT22;6874;52.084;5.090;2023-07-02T06:48:25;15.80;92.40
13606;DHT22;6874;52.084;5.090;2023-07-02T06:50:51;15.80;92.40
13606;DHT22;6874;52.084;5.090;2023-07-02T06:53:16;15.80;92.40
13606;DHT22;6874;52.084;5.090;2023-07-02T06:55:42;15.90;92.30
13606;DHT22;6874;52.084;5.090;2023-07-02T06:58:08;15.90;92.20
13606;DHT22;6874;52.084;5.090;2023-07-02T07:00:34;16.00;92.50
13606;DHT22;6874;52.084;5.090;2023-07-02T07:03:03;16.00;92.40
13606;DHT22;6874;52.084;5.090;2023-07-02T07:05:32;16.00;92.50
13606;DHT22;6874;52.084;5.090;2023-07-02T07:07:59;16.10;92.10
13606;DHT22;6874;52.084;5.090;2023-07-02T07:10:26;16.10;92.00
13606;DHT22;6874;52.084;5.090;2023-07-02T07:12:52;16.20;92.20
13606;DHT22;6874;52.084;5.090;2023-07-02T07:15:17;16.20;92.20
13606;DHT22;6874;52.084;5.090;2023-07-02T07:17:48;16.40;92.30
13606;DHT22;6874;52.084;5.090;2023-07-02T07:20:21;16.30;92.00
13606;DHT22;6874;52.084;5.090;2023-07-02T07:22:47;16.40;91.10
13606;DHT22;6874;52.084;5.090;2023-07-02T07:25:13;16.50;91.60
13606;DHT22;6874;52.084;5.090;2023-07-02T07:27:38;16.60;91.40
13606;DHT22;6874;52.084;5.090;2023-07-02T07:30:04;16.80;89.10
13606;DHT22;6874;52.084;5.090;2023-07-02T07:32:30;16.90;89.50
13606;DHT22;6874;52.084;5.090;2023-07-02T07:34:55;17.10;90.90
13606;DHT22;6874;52.084;5.090;2023-07-02T07:37:21;17.20;90.60
13606;DHT22;6874;52.084;5.090;2023-07-02T07:39:47;17.30;90.50
13606;DHT22;6874;52.084;5.090;2023-07-02T07:42:14;17.50;90.30
13606;DHT22;6874;52.084;5.090;2023-07-02T07:44:40;17.70;90.30
13606;DHT22;6874;52.084;5.090;2023-07-02T07:47:06;17.90;90.40
13606;DHT22;6874;52.084;5.090;2023-07-02T07:49:31;18.00;90.30
13606;DHT22;6874;52.084;5.090;2023-07-02T07:51:57;18.10;88.70
13606;DHT22;6874;52.084;5.090;2023-07-02T07:54:22;18.20;88.40
13606;DHT22;6874;52.084;5.090;2023-07-02T07:56:50;18.40;88.20
13606;DHT22;6874;52.084;5.090;2023-07-02T07:59:15;18.40;88.50
13606;DHT22;6874;52.084;5.090;2023-07-02T08:01:41;18.50;87.20
13606;DHT22;6874;52.084;5.090;2023-07-02T08:04:07;18.70;87.10
13606;DHT22;6874;52.084;5.090;2023-07-02T08:06:32;18.80;86.40
13606;DHT22;6874;52.084;5.090;2023-07-02T08:08:58;18.90;86.50
13606;DHT22;6874;52.084;5.090;2023-07-02T08:11:23;19.10;86.40
13606;DHT22;6874;52.084;5.090;2023-07-02T08:13:49;19.20;84.30
13606;DHT22;6874;52.084;5.090;2023-07-02T08:16:15;19.30;83.20
13606;DHT22;6874;52.084;5.090;2023-07-02T08:18:40;19.30;83.70
13606;DHT22;6874;52.084;5.090;2023-07-02T08:21:06;19.40;84.60
13606;DHT22;6874;52.084;5.090;2023-07-02T08:23:32;19.40;83.70
13606;DHT22;6874;52.084;5.090;2023-07-02T08:25:58;19.60;81.60
13606;DHT22;6874;52.084;5.090;2023-07-02T08:28:23;19.70;81.80
13606;DHT22;6874;52.084;5.090;2023-07-02T08:30:49;19.80;81.90
13606;DHT22;6874;52.084;5.090;2023-07-02T08:33:15;19.90;81.50
13606;DHT22;6874;52.084;5.090;2023-07-02T08:35:40;20.10;81.40
13606;DHT22;6874;52.084;5.090;2023-07-02T08:38:06;20.30;80.30
13606;DHT22;6874;52.084;5.090;2023-07-02T08:40:33;20.30;80.60
13606;DHT22;6874;52.084;5.090;2023-07-02T08:42:59;20.40;80.10
13606;DHT22;6874;52.084;5.090;2023-07-02T08:45:25;20.50;78.80
13606;DHT22;6874;52.084;5.090;2023-07-02T08:47:51;20.70;78.50
13606;DHT22;6874;52.084;5.090;2023-07-02T08:50:20;20.80;77.40
13606;DHT22;6874;52.084;5.090;2023-07-02T08:52:46;20.80;77.50
13606;DHT22;6874;52.084;5.090;2023-07-02T08:55:11;20.80;77.60
13606;DHT22;6874;52.084;5.090;2023-07-02T08:57:37;20.80;77.20
13606;DHT22;6874;52.084;5.090;2023-07-02T09:00:08;20.90;77.70
13606;DHT22;6874;52.084;5.090;2023-07-02T09:02:34;20.80;77.30
13606;DHT22;6874;52.084;5.090;2023-07-02T09:05:03;20.80;76.90
13606;DHT22;6874;52.084;5.090;2023-07-02T09:07:29;20.70;75.90
13606;DHT22;6874;52.084;5.090;2023-07-02T09:09:55;20.70;76.40
13606;DHT22;6874;52.084;5.090;2023-07-02T09:12:29;20.70;76.80
13606;DHT22;6874;52.084;5.090;2023-07-02T09:14:56;20.80;77.10
13606;DHT22;6874;52.084;5.090;2023-07-02T09:17:27;20.70;76.50
13606;DHT22;6874;52.084;5.090;2023-07-02T09:19:57;20.80;74.70
13606;DHT22;6874;52.084;5.090;2023-07-02T09:22:24;20.80;73.20
13606;DHT22;6874;52.084;5.090;2023-07-02T09:24:57;20.80;73.50
13606;DHT22;6874;52.084;5.090;2023-07-02T09:27:41;20.90;71.50
13606;DHT22;6874;52.084;5.090;2023-07-02T09:30:08;20.80;72.00
13606;DHT22;6874;52.084;5.090;2023-07-02T09:32:34;20.80;71.80
13606;DHT22;6874;52.084;5.090;2023-07-02T09:34:59;20.80;73.60
13606;DHT22;6874;52.084;5.090;2023-07-02T09:37:26;20.70;72.80
13606;DHT22;6874;52.084;5.090;2023-07-02T09:39:53;20.70;73.80
13606;DHT22;6874;52.084;5.090;2023-07-02T09:42:19;20.70;73.20
13606;DHT22;6874;52.084;5.090;2023-07-02T09:44:46;20.80;74.40
13606;DHT22;6874;52.084;5.090;2023-07-02T09:47:18;20.80;76.20
13606;DHT22;6874;52.084;5.090;2023-07-02T09:50:04;20.80;73.70
13606;DHT22;6874;52.084;5.090;2023-07-02T09:52:34;20.90;74.90
13606;DHT22;6874;52.084;5.090;2023-07-02T09:55:01;21.10;73.50
13606;DHT22;6874;52.084;5.090;2023-07-02T09:57:26;21.20;72.80
13606;DHT22;6874;52.084;5.090;2023-07-02T09:59:53;21.20;71.70
13606;DHT22;6874;52.084;5.090;2023-07-02T10:02:19;21.30;71.70
13606;DHT22;6874;52.084;5.090;2023-07-02T10:04:46;21.30;71.00
13606;DHT22;6874;52.084;5.090;2023-07-02T10:07:13;21.30;70.30
13606;DHT22;6874;52.084;5.090;2023-07-02T10:09:43;21.30;69.70
13606;DHT22;6874;52.084;5.090;2023-07-02T10:12:19;21.30;70.10
13606;DHT22;6874;52.084;5.090;2023-07-02T10:14:45;21.30;69.60
13606;DHT22;6874;52.084;5.090;2023-07-02T10:17:32;21.30;67.70
13606;DHT22;6874;52.084;5.090;2023-07-02T10:20:05;21.30;66.50
13606;DHT22;6874;52.084;5.090;2023-07-02T10:22:47;21.20;68.40
13606;DHT22;6874;52.084;5.090;2023-07-02T10:25:24;21.20;65.10
13606;DHT22;6874;52.084;5.090;2023-07-02T10:27:51;21.10;68.30
13606;DHT22;6874;52.084;5.090;2023-07-02T10:30:16;21.10;67.90
13606;DHT22;6874;52.084;5.090;2023-07-02T10:32:42;21.20;69.20
13606;DHT22;6874;52.084;5.090;2023-07-02T10:35:17;21.10;67.00
13606;DHT22;6874;52.084;5.090;2023-07-02T10:37:43;21.20;67.10
13606;DHT22;6874;52.084;5.090;2023-07-02T10:40:09;21.10;65.50
13606;DHT22;6874;52.084;5.090;2023-07-02T10:43:05;21.10;66.10
13606;DHT22;6874;52.084;5.090;2023-07-02T10:45:34;21.10;65.70
13606;DHT22;6874;52.084;5.090;2023-07-02T10:48:04;21.10;65.10
13606;DHT22;6874;52.084;5.090;2023-07-02T10:50:33;21.10;64.70
13606;DHT22;6874;52.084;5.090;2023-07-02T10:52:59;21.00;66.40
13606;DHT22;6874;52.084;5.090;2023-07-02T10:55:25;21.10;67.90
13606;DHT22;6874;52.084;5.090;2023-07-02T10:58:04;21.10;67.60
13606;DHT22;6874;52.084;5.090;2023-07-02T11:00:30;21.20;67.30
13606;DHT22;6874;52.084;5.090;2023-07-02T11:02:55;21.30;67.00
13606;DHT22;6874;52.084;5.090;2023-07-02T11:05:21;21.40;68.40
13606;DHT22;6874;52.084;5.090;2023-07-02T11:07:47;21.50;68.60
13606;DHT22;6874;52.084;5.090;2023-07-02T11:10:21;21.50;67.30
13606;DHT22;6874;52.084;5.090;2023-07-02T11:12:47;21.40;68.00
13606;DHT22;6874;52.084;5.090;2023-07-02T11:15:14;21.50;66.70
13606;DHT22;6874;52.084;5.090;2023-07-02T11:17:43;21.50;66.80
13606;DHT22;6874;52.084;5.090;2023-07-02T11:20:10;21.50;65.00
13606;DHT22;6874;52.084;5.090;2023-07-02T11:22:37;21.60;65.80
13606;DHT22;6874;52.084;5.090;2023-07-02T11:25:17;21.60;67.00
13606;DHT22;6874;52.084;5.090;2023-07-02T11:27:43;21.60;67.00
13606;DHT22;6874;52.084;5.090;2023-07-02T11:30:09;21.60;66.00
13606;DHT22;6874;52.084;5.090;2023-07-02T11:32:52;21.70;65.40
13606;DHT22;6874;52.084;5.090;2023-07-02T11:35:18;21.80;64.50
13606;DHT22;6874;52.084;5.090;2023-07-02T11:37:45;21.80;65.60
13606;DHT22;6874;52.084;5.090;2023-07-02T11:40:12;21.90;64.80
13606;DHT22;6874;52.084;5.090;2023-07-02T11:42:38;21.90;65.10
13606;DHT22;6874;52.084;5.090;2023-07-02T11:45:04;22.00;63.30
13606;DHT22;6874;52.084;5.090;2023-07-02T11:47:30;22.00;63.00
13606;DHT22;6874;52.084;5.090;2023-07-02T11:49:56;22.00;66.40
13606;DHT22;6874;52.084;5.090;2023-07-02T11:52:22;22.10;64.70
13606;DHT22;6874;52.084;5.090;2023-07-02T11:54:48;22.10;65.90
13606;DHT22;6874;52.084;5.090;2023-07-02T11:57:13;22.10;65.30
13606;DHT22;6874;52.084;5.090;2023-07-02T11:59:39;22.30;66.50
13606;DHT22;6874;52.084;5.090;2023-07-02T12:02:05;22.40;65.10
13606;DHT22;6874;52.084;5.090;2023-07-02T12:04:33;22.50;66.30
13606;DHT22;6874;52.084;5.090;2023-07-02T12:06:59;22.60;66.10
13606;DHT22;6874;52.084;5.090;2023-07-02T12:09:27;22.60;62.30
13606;DHT22;6874;52.084;5.090;2023-07-02T12:11:53;22.60;64.00
13606;DHT22;6874;52.084;5.090;2023-07-02T12:14:18;22.70;63.40
13606;DHT22;6874;52.084;5.090;2023-07-02T12:16:44;22.70;64.20
13606;DHT22;6874;52.084;5.090;2023-07-02T12:19:10;22.70;63.50
13606;DHT22;6874;52.084;5.090;2023-07-02T12:21:35;22.80;63.50
13606;DHT22;6874;52.084;5.090;2023-07-02T12:24:02;22.80;63.70
13606;DHT22;6874;52.084;5.090;2023-07-02T12:26:27;22.80;62.90
13606;DHT22;6874;52.084;5.090;2023-07-02T12:28:54;22.80;62.50
13606;DHT22;6874;52.084;5.090;2023-07-02T12:31:20;22.90;60.70
13606;DHT22;6874;52.084;5.090;2023-07-02T12:33:45;22.80;59.60
13606;DHT22;6874;52.084;5.090;2023-07-02T12:36:11;22.80;61.20
13606;DHT22;6874;52.084;5.090;2023-07-02T12:38:37;22.80;60.80
13606;DHT22;6874;52.084;5.090;2023-07-02T12:41:03;22.70;60.10
13606;DHT22;6874;52.084;5.090;2023-07-02T12:43:28;22.70;58.80
13606;DHT22;6874;52.084;5.090;2023-07-02T12:45:54;22.60;59.60
13606;DHT22;6874;52.084;5.090;2023-07-02T12:48:20;22.70;60.00
13606;DHT22;6874;52.084;5.090;2023-07-02T12:50:55;22.70;60.80
13606;DHT22;6874;52.084;5.090;2023-07-02T12:53:22;22.70;60.00
13606;DHT22;6874;52.084;5.090;2023-07-02T12:55:47;22.70;59.40
13606;DHT22;6874;52.084;5.090;2023-07-02T12:58:13;22.70;59.00
13606;DHT22;6874;52.084;5.090;2023-07-02T13:00:38;22.80;59.30
13606;DHT22;6874;52.084;5.090;2023-07-02T13:03:04;22.80;60.40
13606;DHT22;6874;52.084;5.090;2023-07-02T13:05:30;22.90;59.70
13606;DHT22;6874;52.084;5.090;2023-07-02T13:07:56;22.90;60.10
13606;DHT22;6874;52.084;5.090;2023-07-02T13:10:21;22.90;59.50
13606;DHT22;6874;52.084;5.090;2023-07-02T13:12:47;23.00;59.00
13606;DHT22;6874;52.084;5.090;2023-07-02T13:15:13;22.90;60.00
13606;DHT22;6874;52.084;5.090;2023-07-02T13:17:38;23.00;59.60
13606;DHT22;6874;52.084;5.090;2023-07-02T13:20:04;23.00;60.50
13606;DHT22;6874;52.084;5.090;2023-07-02T13:22:30;23.10;60.00
13606;DHT22;6874;52.084;5.090;2023-07-02T13:24:56;23.10;59.40
13606;DHT22;6874;52.084;5.090;2023-07-02T13:27:21;23.20;58.60
13606;DHT22;6874;52.084;5.090;2023-07-02T13:29:47;23.20;59.30
13606;DHT22;6874;52.084;5.090;2023-07-02T13:32:12;23.20;59.30
13606;DHT22;6874;52.084;5.090;2023-07-02T13:34:38;23.30;59.80
13606;DHT22;6874;52.084;5.090;2023-07-02T13:37:04;23.30;60.10
13606;DHT22;6874;52.084;5.090;2023-07-02T13:39:30;23.30;58.10
13606;DHT22;6874;52.084;5.090;2023-07-02T13:41:56;23.30;58.20
13606;DHT22;6874;52.084;5.090;2023-07-02T13:44:21;23.30;59.30
13606;DHT22;6874;52.084;5.090;2023-07-02T13:46:48;23.30;58.90
13606;DHT22;6874;52.084;5.090;2023-07-02T13:49:14;23.30;58.50
13606;DHT22;6874;52.084;5.090;2023-07-02T13:51:39;23.30;59.70
13606;DHT22;6874;52.084;5.090;2023-07-02T13:54:05;23.30;59.20
13606;DHT22;6874;52.084;5.090;2023-07-02T13:56:30;23.30;59.10
13606;DHT22;6874;52.084;5.090;2023-07-02T14:01:25;23.30;58.70
13606;DHT22;6874;52.084;5.090;2023-07-02T14:03:50;23.30;58.20
13606;DHT22;6874;52.084;5.090;2023-07-02T14:06:16;23.30;57.20
13606;DHT22;6874;52.084;5.090;2023-07-02T14:08:42;23.30;58.90
13606;DHT22;6874;52.084;5.090;2023-07-02T14:11:08;23.30;58.80
13606;DHT22;6874;52.084;5.090;2023-07-02T14:13:34;23.30;58.10
13606;DHT22;6874;52.084;5.090;2023-07-02T14:16:01;23.30;57.60
13606;DHT22;6874;52.084;5.090;2023-07-02T14:18:26;23.30;58.70
13606;DHT22;6874;52.084;5.090;2023-07-02T14:20:52;23.30;59.10
13606;DHT22;6874;52.084;5.090;2023-07-02T14:23:17;23.40;58.30
13606;DHT22;6874;52.084;5.090;2023-07-02T14:25:43;23.30;58.20
13606;DHT22;6874;52.084;5.090;2023-07-02T14:28:09;23.40;58.50
13606;DHT22;6874;52.084;5.090;2023-07-02T14:30:35;23.40;59.10
13606;DHT22;6874;52.084;5.090;2023-07-02T14:33:01;23.40;59.60
13606;DHT22;6874;52.084;5.090;2023-07-02T14:35:26;23.50;57.80
13606;DHT22;6874;52.084;5.090;2023-07-02T14:37:54;23.50;56.70
13606;DHT22;6874;52.084;5.090;2023-07-02T14:40:20;23.50;57.90
13606;DHT22;6874;52.084;5.090;2023-07-02T14:42:45;23.50;57.40
13606;DHT22;6874;52.084;5.090;2023-07-02T14:45:11;23.50;57.50
13606;DHT22;6874;52.084;5.090;2023-07-02T14:47:37;23.50;57.10
13606;DHT22;6874;52.084;5.090;2023-07-02T14:50:04;23.50;57.10
13606;DHT22;6874;52.084;5.090;2023-07-02T14:52:29;23.50;57.90
13606;DHT22;6874;52.084;5.090;2023-07-02T14:54:55;23.60;58.60
13606;DHT22;6874;52.084;5.090;2023-07-02T14:57:21;23.60;57.10
13606;DHT22;6874;52.084;5.090;2023-07-02T14:59:48;23.60;57.80
13606;DHT22;6874;52.084;5.090;2023-07-02T15:02:15;23.70;56.90
13606;DHT22;6874;52.084;5.090;2023-07-02T15:04:41;23.60;57.00
13606;DHT22;6874;52.084;5.090;2023-07-02T15:07:06;23.60;58.10
13606;DHT22;6874;52.084;5.090;2023-07-02T15:09:32;23.60;56.30
13606;DHT22;6874;52.084;5.090;2023-07-02T15:11:58;23.60;56.80
13606;DHT22;6874;52.084;5.090;2023-07-02T15:14:23;23.60;57.90
13606;DHT22;6874;52.084;5.090;2023-07-02T15:16:49;23.60;58.40
13606;DHT22;6874;52.084;5.090;2023-07-02T15:19:14;23.60;58.40
13606;DHT22;6874;52.084;5.090;2023-07-02T15:21:41;23.60;58.00
13606;DHT22;6874;52.084;5.090;2023-07-02T15:24:07;23.60;57.60
13606;DHT22;6874;52.084;5.090;2023-07-02T15:26:36;23.60;58.70
13606;DHT22;6874;52.084;5.090;2023-07-02T15:29:01;23.60;58.40
13606;DHT22;6874;52.084;5.090;2023-07-02T15:31:27;23.60;58.70
13606;DHT22;6874;52.084;5.090;2023-07-02T15:33:53;23.70;58.10
13606;DHT22;6874;52.084;5.090;2023-07-02T15:36:19;23.60;57.20
13606;DHT22;6874;52.084;5.090;2023-07-02T15:38:47;23.60;57.80
13606;DHT22;6874;52.084;5.090;2023-07-02T15:41:18;23.60;58.00
13606;DHT22;6874;52.084;5.090;2023-07-02T15:43:47;23.70;57.80